createdAt,value
2022-10-01T00:02:02.638Z,12.77
2022-10-01T00:04:31.126Z,12.80
2022-10-01T00:07:03.441Z,12.68
2022-10-01T00:09:34.606Z,12.93
2022-10-01T00:12:03.223Z,13.00
2022-10-01T00:14:31.524Z,13.04
2022-10-01T00:16:59.886Z,13.15
2022-10-01T00:19:28.316Z,12.75
2022-10-01T00:21:56.613Z,12.78
2022-10-01T00:24:24.853Z,12.99
2022-10-01T00:26:53.503Z,13.12
2022-10-01T00:29:21.746Z,12.93
2022-10-01T00:31:50.064Z,13.02
2022-10-01T00:34:18.386Z,13.08
2022-10-01T00:36:46.620Z,12.62
2022-10-01T00:39:15.140Z,13.14
2022-10-01T00:41:43.620Z,13.10
2022-10-01T00:44:33.854Z,13.03
2022-10-01T00:47:08.887Z,13.18
2022-10-01T00:49:37.405Z,13.16
2022-10-01T00:52:07.893Z,13.14
2022-10-01T00:54:59.338Z,12.91
2022-10-01T00:57:27.558Z,12.59
2022-10-01T00:59:57.062Z,12.52
2022-10-01T01:02:25.302Z,11.62
2022-10-01T01:04:53.615Z,12.43
2022-10-01T01:07:21.892Z,12.54
2022-10-01T01:09:50.168Z,12.65
2022-10-01T01:12:36.872Z,12.77
2022-10-01T01:15:30.548Z,12.65
2022-10-01T01:18:22.402Z,12.87
2022-10-01T01:20:51.987Z,12.61
2022-10-01T01:23:51.930Z,11.94
2022-10-01T01:26:43.148Z,12.20
2022-10-01T01:29:18.499Z,12.01
2022-10-01T01:31:46.995Z,12.37
2022-10-01T01:34:22.079Z,12.38
2022-10-01T01:36:58.874Z,12.52
2022-10-01T01:39:27.694Z,11.77
2022-10-01T01:41:59.694Z,12.26
2022-10-01T01:44:30.117Z,12.18
2022-10-01T01:46:58.387Z,12.34
2022-10-01T01:49:26.635Z,12.51
2022-10-01T01:51:59.835Z,12.37
2022-10-01T01:54:29.794Z,12.09
2022-10-01T01:56:58.608Z,12.22
2022-10-01T01:59:26.949Z,11.64
2022-10-01T02:01:55.344Z,11.90
2022-10-01T02:04:49.844Z,12.37
2022-10-01T02:07:29.274Z,12.16
2022-10-01T02:10:12.751Z,12.12
2022-10-01T02:12:53.920Z,12.08
2022-10-01T02:16:12.459Z,11.90
2022-10-01T02:19:06.518Z,12.16
2022-10-01T02:21:41.288Z,11.59
2022-10-01T02:24:57.277Z,11.67
2022-10-01T02:27:51.872Z,11.60
2022-10-01T02:30:20.286Z,11.85
2022-10-01T02:32:48.738Z,11.54
2022-10-01T02:35:18.012Z,11.33
2022-10-01T02:37:47.599Z,11.82
2022-10-01T02:40:17.153Z,11.71
2022-10-01T02:42:50.480Z,11.52
2022-10-01T02:45:23.062Z,11.31
2022-10-01T02:48:02.741Z,11.88
2022-10-01T02:50:54.450Z,11.67
2022-10-01T02:53:26.959Z,11.90
2022-10-01T02:55:55.236Z,11.90
2022-10-01T02:58:23.478Z,11.65
2022-10-01T03:00:53.343Z,10.25
2022-10-01T03:03:21.541Z,11.20
2022-10-01T03:05:49.853Z,11.26
2022-10-01T03:08:18.322Z,10.22
2022-10-01T03:10:47.009Z,11.22
2022-10-01T03:13:15.333Z,10.63
2022-10-01T03:15:46.367Z,11.23
2022-10-01T03:18:14.606Z,11.39
2022-10-01T03:20:43.018Z,11.18
2022-10-01T03:23:11.283Z,11.12
2022-10-01T03:25:39.528Z,11.25
2022-10-01T03:28:07.760Z,11.48
2022-10-01T03:30:36.140Z,10.77
2022-10-01T03:33:04.486Z,11.30
2022-10-01T03:35:32.758Z,11.39
2022-10-01T03:38:03.039Z,11.43
2022-10-01T03:40:33.655Z,11.48
2022-10-01T03:43:02.254Z,10.27
2022-10-01T03:45:30.534Z,11.20
2022-10-01T03:47:58.838Z,11.40
2022-10-01T03:50:27.093Z,11.27
2022-10-01T03:52:55.408Z,11.73
2022-10-01T03:55:25.439Z,11.44
2022-10-01T03:57:53.702Z,11.42
2022-10-01T04:00:22.316Z,11.85
2022-10-01T04:02:50.611Z,11.40
2022-10-01T04:05:18.973Z,10.60
2022-10-01T04:07:48.128Z,11.29
2022-10-01T04:10:16.461Z,10.81
2022-10-01T04:12:44.740Z,10.94
2022-10-01T04:15:13.119Z,11.21
2022-10-01T04:17:45.740Z,11.12
2022-10-01T04:20:14.664Z,10.66
2022-10-01T04:22:43.082Z,11.12
2022-10-01T04:25:11.410Z,11.21
2022-10-01T04:27:40.448Z,11.66
2022-10-01T04:30:09.564Z,10.98
2022-10-01T04:32:38.615Z,11.54
2022-10-01T04:35:07.433Z,11.47
2022-10-01T04:37:35.990Z,11.68
2022-10-01T04:40:04.995Z,11.49
2022-10-01T04:42:33.248Z,11.47
2022-10-01T04:45:01.552Z,10.84
2022-10-01T04:47:29.924Z,10.67
2022-10-01T04:49:58.225Z,10.85
2022-10-01T04:52:26.752Z,10.77
2022-10-01T04:54:54.987Z,10.82
2022-10-01T04:57:23.227Z,11.05
2022-10-01T04:59:51.458Z,10.97
2022-10-01T05:02:19.875Z,11.25
2022-10-01T05:04:48.676Z,11.48
2022-10-01T05:07:17.028Z,11.00
2022-10-01T05:09:46.257Z,11.02
2022-10-01T05:12:14.867Z,10.97
2022-10-01T05:14:43.291Z,11.06
2022-10-01T05:17:11.651Z,11.28
2022-10-01T05:19:39.892Z,11.49
2022-10-01T05:22:08.177Z,11.73
2022-10-01T05:24:36.910Z,11.39
2022-10-01T05:27:05.255Z,11.69
2022-10-01T05:29:33.746Z,11.55
2022-10-01T05:32:03.197Z,11.50
2022-10-01T05:34:31.930Z,11.49
2022-10-01T05:37:01.108Z,11.66
2022-10-01T05:39:33.182Z,11.89
2022-10-01T05:42:06.410Z,12.49
2022-10-01T05:44:38.131Z,12.73
2022-10-01T05:47:07.089Z,13.08
2022-10-01T05:49:35.391Z,13.37
2022-10-01T05:52:04.975Z,13.00
2022-10-01T05:54:33.310Z,13.37
2022-10-01T05:57:01.752Z,13.57
2022-10-01T05:59:31.995Z,13.47
2022-10-01T06:02:00.945Z,13.68
2022-10-01T06:04:29.506Z,13.25
2022-10-01T06:06:57.962Z,13.60
2022-10-01T06:09:26.469Z,13.44
2022-10-01T06:11:55.514Z,13.98
2022-10-01T06:14:23.965Z,14.14
2022-10-01T06:16:55.640Z,13.90
2022-10-01T06:19:24.335Z,13.83
2022-10-01T06:21:52.655Z,14.18
2022-10-01T06:24:20.994Z,14.17
2022-10-01T06:26:49.512Z,14.43
2022-10-01T06:29:17.884Z,14.57
2022-10-01T06:31:46.432Z,14.74
2022-10-01T06:34:14.751Z,14.66
2022-10-01T06:36:43.075Z,14.72
2022-10-01T06:39:13.063Z,14.97
2022-10-01T06:41:43.864Z,14.10
2022-10-01T06:44:16.534Z,14.86
2022-10-01T06:46:45.127Z,14.69
2022-10-01T06:49:14.159Z,14.99
2022-10-01T06:52:00.826Z,15.31
2022-10-01T06:54:29.224Z,14.85
2022-10-01T06:56:57.746Z,15.28
2022-10-01T06:59:27.145Z,15.05
2022-10-01T07:01:56.591Z,14.99
2022-10-01T07:04:25.238Z,15.09
2022-10-01T07:06:53.539Z,15.51
2022-10-01T07:09:25.867Z,15.33
2022-10-01T07:11:54.259Z,15.48
2022-10-01T07:14:22.521Z,15.99
2022-10-01T07:16:50.911Z,15.07
2022-10-01T07:19:19.626Z,14.79
2022-10-01T07:21:52.255Z,15.72
2022-10-01T07:24:20.872Z,15.95
2022-10-01T07:26:51.230Z,16.49
2022-10-01T07:29:19.547Z,16.53
2022-10-01T07:31:48.137Z,16.40
2022-10-01T07:34:16.564Z,16.79
2022-10-01T07:36:46.363Z,17.06
2022-10-01T07:39:15.236Z,17.14
2022-10-01T07:41:45.961Z,17.22
2022-10-01T07:44:14.392Z,16.86
2022-10-01T07:46:42.661Z,17.54
2022-10-01T07:49:11.060Z,17.10
2022-10-01T07:51:39.659Z,17.50
2022-10-01T07:54:08.451Z,18.12
2022-10-01T07:56:36.851Z,18.55
2022-10-01T07:59:05.174Z,19.18
2022-10-01T08:01:33.862Z,19.39
2022-10-01T08:04:22.423Z,19.62
2022-10-01T08:06:51.493Z,20.43
2022-10-01T08:09:20.859Z,19.80
2022-10-01T08:11:49.217Z,20.29
2022-10-01T08:14:18.781Z,20.48
2022-10-01T08:16:47.830Z,20.77
2022-10-01T08:19:16.326Z,21.56
2022-10-01T08:21:44.704Z,22.15
2022-10-01T08:24:13.286Z,22.38
2022-10-01T08:26:41.805Z,22.65
2022-10-01T08:29:14.834Z,22.69
2022-10-01T08:31:45.818Z,22.64
2022-10-01T08:34:14.983Z,22.47
2022-10-01T08:36:43.525Z,22.58
2022-10-01T08:39:13.801Z,22.44
2022-10-01T08:42:02.403Z,22.53
2022-10-01T08:44:38.209Z,22.15
2022-10-01T08:47:10.748Z,22.33
2022-10-01T08:49:51.224Z,22.05
2022-10-01T08:52:23.544Z,22.11
2022-10-01T08:54:54.223Z,22.54
2022-10-01T08:57:26.015Z,22.26
2022-10-01T08:59:56.315Z,22.54
2022-10-01T09:02:32.591Z,22.44
2022-10-01T09:05:03.338Z,22.57
2022-10-01T09:08:44.000Z,22.37
2022-10-01T09:11:43.564Z,21.88
2022-10-01T09:14:27.860Z,22.11
2022-10-01T09:17:23.779Z,22.16
2022-10-01T09:20:07.065Z,21.53
2022-10-01T09:22:44.800Z,21.62
2022-10-01T09:25:33.403Z,21.78
2022-10-01T09:28:19.731Z,22.21
2022-10-01T09:31:16.744Z,21.76
2022-10-01T09:33:51.775Z,21.91
2022-10-01T09:36:39.799Z,21.94
2022-10-01T09:39:30.153Z,21.92
2022-10-01T09:42:00.152Z,21.59
2022-10-01T09:44:29.784Z,21.25
2022-10-01T09:46:58.380Z,20.92
2022-10-01T09:49:44.147Z,20.57
2022-10-01T09:52:34.847Z,20.94
2022-10-01T09:55:11.739Z,20.38
2022-10-01T09:57:55.797Z,20.77
2022-10-01T10:00:26.013Z,20.67
2022-10-01T10:02:55.088Z,19.72
2022-10-01T10:05:27.780Z,19.69
2022-10-01T10:07:58.856Z,19.99
2022-10-01T10:10:40.945Z,19.88
2022-10-01T10:13:26.285Z,19.98
2022-10-01T10:16:00.604Z,19.39
2022-10-01T10:18:52.380Z,19.60
2022-10-01T10:21:25.986Z,19.75
2022-10-01T10:23:56.767Z,19.29
2022-10-01T10:26:36.176Z,19.56
2022-10-01T10:29:06.196Z,19.58
2022-10-01T10:31:45.701Z,19.90
2022-10-01T10:34:33.629Z,19.47
2022-10-01T10:37:05.955Z,19.35
2022-10-01T10:39:39.634Z,19.89
2022-10-01T10:42:09.709Z,20.05
2022-10-01T10:44:40.162Z,19.80
2022-10-01T10:47:15.034Z,19.42
2022-10-01T10:50:00.385Z,19.71
2022-10-01T10:52:36.846Z,19.47
2022-10-01T10:55:31.357Z,19.67
2022-10-01T10:58:14.946Z,19.56
2022-10-01T11:00:50.671Z,19.20
2022-10-01T11:03:29.671Z,19.36
2022-10-01T11:06:10.321Z,19.40
2022-10-01T11:08:45.317Z,19.32
2022-10-01T11:11:55.528Z,19.54
2022-10-01T11:14:29.956Z,19.41
2022-10-01T11:17:18.862Z,19.22
2022-10-01T11:20:30.440Z,19.51
2022-10-01T11:23:28.039Z,19.40
2022-10-01T11:26:30.728Z,19.49
2022-10-01T11:29:43.828Z,19.24
2022-10-01T11:32:40.536Z,19.36
2022-10-01T11:35:27.117Z,19.31
2022-10-01T11:38:13.971Z,19.59
2022-10-01T11:40:43.955Z,19.59
2022-10-01T11:43:27.564Z,19.42
2022-10-01T11:46:08.951Z,19.92
2022-10-01T11:48:44.384Z,19.50
2022-10-01T11:51:18.473Z,19.63
2022-10-01T11:53:49.527Z,19.99
2022-10-01T11:56:41.567Z,19.98
2022-10-01T11:59:23.025Z,20.12
2022-10-01T12:02:18.236Z,20.44
2022-10-01T12:04:51.345Z,20.29
2022-10-01T12:07:42.462Z,20.18
2022-10-01T12:10:26.002Z,19.68
2022-10-01T12:13:21.168Z,19.68
2022-10-01T12:16:15.853Z,19.95
2022-10-01T12:19:05.774Z,20.32
2022-10-01T12:21:45.393Z,20.22
2022-10-01T12:24:16.435Z,20.25
2022-10-01T12:27:06.848Z,19.95
2022-10-01T12:29:38.866Z,20.77
2022-10-01T12:32:26.403Z,20.88
2022-10-01T12:35:02.788Z,21.31
2022-10-01T12:37:55.356Z,21.57
2022-10-01T12:40:40.695Z,21.26
2022-10-01T12:43:36.914Z,21.01
2022-10-01T12:46:09.694Z,21.05
2022-10-01T12:49:06.738Z,20.30
2022-10-01T12:51:40.679Z,20.62
2022-10-01T12:54:31.527Z,21.13
2022-10-01T12:57:25.108Z,20.92
2022-10-01T13:00:12.217Z,21.60
2022-10-01T13:02:58.002Z,21.11
2022-10-01T13:05:42.692Z,20.96
2022-10-01T13:08:16.727Z,21.51
2022-10-01T13:11:13.445Z,21.59
2022-10-01T13:13:44.685Z,21.79
2022-10-01T13:16:30.171Z,22.26
2022-10-01T13:19:17.903Z,22.28
2022-10-01T13:22:13.179Z,22.38
2022-10-01T13:24:53.090Z,21.86
2022-10-01T13:27:40.930Z,21.98
2022-10-01T13:30:27.579Z,21.85
2022-10-01T13:32:58.617Z,21.96
2022-10-01T13:35:39.758Z,22.06
2022-10-01T13:38:46.186Z,21.96
2022-10-01T13:41:22.646Z,22.12
2022-10-01T13:44:25.495Z,22.06
2022-10-01T13:47:02.786Z,21.76
2022-10-01T13:49:31.357Z,21.88
2022-10-01T13:51:59.847Z,22.32
2022-10-01T13:54:43.647Z,22.40
2022-10-01T13:57:39.645Z,21.95
2022-10-01T14:00:09.834Z,22.54
2022-10-01T14:02:50.433Z,22.17
2022-10-01T14:05:29.091Z,22.38
2022-10-01T14:08:12.011Z,22.54
2022-10-01T14:11:05.668Z,21.63
2022-10-01T14:13:52.656Z,22.25
2022-10-01T14:16:21.045Z,21.94
2022-10-01T14:18:53.796Z,22.44
2022-10-01T14:21:28.960Z,22.51
2022-10-01T14:24:19.125Z,22.27
2022-10-01T14:27:20.975Z,22.70
2022-10-01T14:30:08.469Z,22.46
2022-10-01T14:32:51.911Z,22.66
2022-10-01T14:35:41.435Z,22.58
2022-10-01T14:38:20.374Z,22.26
2022-10-01T14:40:52.224Z,22.34
2022-10-01T14:43:32.108Z,22.74
2022-10-01T14:46:05.227Z,22.49
2022-10-01T14:48:35.173Z,22.87
2022-10-01T14:51:08.016Z,22.94
2022-10-01T14:53:38.896Z,22.95
2022-10-01T14:56:09.230Z,23.14
2022-10-01T14:58:42.544Z,22.99
2022-10-01T15:01:22.097Z,22.97
2022-10-01T15:03:51.094Z,22.96
2022-10-01T15:06:26.330Z,23.13
2022-10-01T15:08:57.575Z,22.89
2022-10-01T15:11:31.954Z,22.89
2022-10-01T15:14:07.184Z,23.12
2022-10-01T15:16:35.933Z,23.02
2022-10-01T15:19:08.827Z,23.06
2022-10-01T15:21:51.971Z,23.14
2022-10-01T15:24:41.879Z,22.96
2022-10-01T15:27:15.133Z,22.74
2022-10-01T15:29:45.488Z,22.41
2022-10-01T15:32:15.575Z,22.70
2022-10-01T15:34:49.852Z,22.56
2022-10-01T15:37:37.426Z,22.41
2022-10-01T15:40:12.059Z,22.40
2022-10-01T15:42:42.385Z,22.33
2022-10-01T15:45:21.840Z,21.99
2022-10-01T15:47:59.383Z,22.03
2022-10-01T15:50:44.037Z,21.91
2022-10-01T15:53:19.376Z,21.72
2022-10-01T15:55:51.663Z,21.48
2022-10-01T15:58:22.939Z,21.58
2022-10-01T16:01:10.391Z,21.11
2022-10-01T16:03:41.950Z,21.28
2022-10-01T16:06:23.721Z,21.35
2022-10-01T16:09:24.445Z,21.30
2022-10-01T16:12:00.520Z,21.33
2022-10-01T16:14:40.893Z,21.17
2022-10-01T16:17:23.042Z,21.36
2022-10-01T16:19:57.174Z,20.80
2022-10-01T16:22:32.625Z,20.90
2022-10-01T16:25:09.881Z,20.63
2022-10-01T16:28:02.295Z,20.85
2022-10-01T16:30:52.390Z,20.75
2022-10-01T16:33:40.736Z,20.37
2022-10-01T16:36:10.274Z,20.48
2022-10-01T16:38:38.843Z,20.55
2022-10-01T16:41:10.030Z,20.81
2022-10-01T16:43:40.237Z,20.60
2022-10-01T16:46:12.686Z,20.51
2022-10-01T16:48:43.738Z,20.41
2022-10-01T16:51:18.175Z,20.38
2022-10-01T16:53:49.228Z,20.36
2022-10-01T16:56:27.196Z,20.75
2022-10-01T16:58:57.563Z,20.60
2022-10-01T17:01:31.470Z,20.46
2022-10-01T17:04:03.549Z,20.28
2022-10-01T17:06:33.084Z,20.29
2022-10-01T17:09:02.930Z,20.27
2022-10-01T17:11:37.288Z,20.41
2022-10-01T17:17:07.680Z,20.06
2022-10-01T17:22:40.609Z,20.07
2022-10-01T17:25:23.753Z,19.91
2022-10-01T17:28:02.985Z,20.08
2022-10-01T17:30:45.557Z,19.78
2022-10-01T17:33:24.371Z,20.04
2022-10-01T17:36:04.217Z,19.81
2022-10-01T17:38:36.825Z,19.88
2022-10-01T17:41:08.249Z,19.78
2022-10-01T17:43:41.658Z,19.81
2022-10-01T17:46:18.821Z,19.94
2022-10-01T17:48:52.199Z,19.87
2022-10-01T17:51:30.252Z,19.83
2022-10-01T17:54:06.036Z,19.76
2022-10-01T17:56:34.568Z,19.77
2022-10-01T17:59:05.386Z,19.69
2022-10-01T18:01:49.384Z,19.25
2022-10-01T18:04:19.287Z,19.49
2022-10-01T18:06:50.289Z,18.45
2022-10-01T18:09:19.424Z,19.30
2022-10-01T18:11:49.882Z,19.41
2022-10-01T18:14:19.063Z,19.39
2022-10-01T18:16:47.680Z,18.88
2022-10-01T18:22:14.769Z,19.23
2022-10-01T18:24:51.033Z,18.99
2022-10-01T18:27:29.516Z,19.12
2022-10-01T18:30:24.227Z,19.22
2022-10-01T18:33:04.858Z,19.26
2022-10-01T18:35:36.032Z,19.48
2022-10-01T18:41:07.938Z,19.44
2022-10-01T18:43:43.131Z,18.20
2022-10-01T18:46:44.427Z,18.91
2022-10-01T18:50:12.996Z,18.84
2022-10-01T18:52:41.331Z,18.80
2022-10-01T18:55:41.866Z,18.89
2022-10-01T18:58:50.028Z,18.86
2022-10-01T19:01:32.992Z,18.63
2022-10-01T19:04:27.812Z,18.67
2022-10-01T19:07:27.840Z,18.97
2022-10-01T19:10:07.451Z,18.71
2022-10-01T19:16:41.418Z,18.63
2022-10-01T19:19:28.559Z,18.08
2022-10-01T19:22:06.368Z,18.34
2022-10-01T19:24:52.796Z,18.21
2022-10-01T19:27:33.942Z,17.94
2022-10-01T19:30:16.301Z,18.43
2022-10-01T19:33:07.191Z,18.64
2022-10-01T19:41:52.334Z,18.53
2022-10-01T19:44:36.047Z,18.40
2022-10-01T19:47:21.225Z,18.42
2022-10-01T19:49:50.701Z,18.47
2022-10-01T19:52:25.544Z,18.52
2022-10-01T19:55:02.511Z,18.62
2022-10-01T19:57:39.131Z,18.67
2022-10-01T20:00:11.983Z,18.38
2022-10-01T20:02:52.243Z,18.30
2022-10-01T20:05:30.422Z,17.11
2022-10-01T20:08:04.693Z,17.12
2022-10-01T20:10:54.132Z,16.43
2022-10-01T20:13:34.923Z,16.26
2022-10-01T20:16:31.115Z,16.07
2022-10-01T20:19:29.045Z,16.06
2022-10-01T20:22:10.113Z,17.06
2022-10-01T20:24:44.555Z,16.44
2022-10-01T20:27:39.665Z,16.62
2022-10-01T20:39:42.367Z,16.54
2022-10-01T20:47:42.264Z,16.89
2022-10-01T20:50:14.840Z,16.67
2022-10-01T20:53:04.401Z,16.48
2022-10-01T20:55:39.222Z,16.61
2022-10-01T20:58:14.760Z,16.36
2022-10-01T21:00:43.741Z,16.37
2022-10-01T21:03:23.475Z,16.60
2022-10-01T21:06:01.573Z,16.72
2022-10-01T21:08:51.031Z,16.69
2022-10-01T21:11:38.674Z,17.24
2022-10-01T21:14:22.436Z,17.39
2022-10-01T21:17:06.319Z,17.35
2022-10-01T21:20:02.448Z,17.35
2022-10-01T21:23:05.300Z,16.87
2022-10-01T21:25:52.518Z,17.18
2022-10-01T21:28:31.695Z,16.91
2022-10-01T21:31:42.387Z,16.76
2022-10-01T21:34:20.288Z,17.17
2022-10-01T21:37:15.186Z,17.22
2022-10-01T21:40:05.485Z,17.09
2022-10-01T21:42:55.375Z,17.29
2022-10-01T21:45:23.693Z,17.48
2022-10-01T21:48:12.704Z,16.97
2022-10-01T21:50:55.828Z,17.10
2022-10-01T21:53:33.240Z,17.06
2022-10-01T21:56:24.301Z,17.40
2022-10-01T21:59:29.321Z,16.33
2022-10-01T22:02:19.775Z,16.66
2022-10-01T22:04:54.264Z,17.07
2022-10-01T22:07:36.738Z,17.00
2022-10-01T22:10:16.509Z,17.18
2022-10-01T22:12:47.926Z,17.10
2022-10-01T22:15:37.154Z,17.14
2022-10-01T22:18:07.035Z,17.38
2022-10-01T22:20:35.823Z,16.96
2022-10-01T22:23:08.868Z,16.98
2022-10-01T22:25:41.251Z,16.61
2022-10-01T22:28:13.629Z,16.52
2022-10-01T22:30:42.081Z,16.70
2022-10-01T22:33:20.700Z,17.15
2022-10-01T22:36:02.554Z,17.10
2022-10-01T22:38:39.105Z,17.50
2022-10-01T22:41:11.705Z,17.60
2022-10-01T22:43:42.067Z,16.98
2022-10-01T22:46:30.046Z,17.07
2022-10-01T22:49:05.374Z,16.75
2022-10-01T22:52:14.929Z,17.26
2022-10-01T22:54:43.194Z,17.18
2022-10-01T22:57:22.251Z,17.09
2022-10-01T23:00:02.904Z,16.79
2022-10-01T23:02:34.348Z,16.88
2022-10-01T23:05:08.849Z,16.81
2022-10-01T23:07:48.646Z,16.95
2022-10-01T23:10:25.903Z,16.79
2022-10-01T23:13:11.350Z,17.37
2022-10-01T23:16:06.811Z,16.92
2022-10-01T23:19:06.231Z,17.05
2022-10-01T23:21:40.164Z,16.53
2022-10-01T23:24:13.901Z,16.47
2022-10-01T23:26:48.131Z,16.88
2022-10-01T23:29:40.619Z,17.15
2022-10-01T23:32:25.399Z,17.21
2022-10-01T23:35:03.754Z,16.87
2022-10-01T23:37:45.171Z,16.61
2022-10-01T23:40:15.247Z,16.76
2022-10-01T23:42:51.854Z,15.86
2022-10-01T23:45:42.000Z,16.06
2022-10-01T23:48:24.352Z,15.51
2022-10-01T23:51:02.747Z,15.38
2022-10-01T23:54:03.806Z,15.22
2022-10-01T23:56:51.045Z,15.20
2022-10-01T23:59:24.793Z,14.83
